createdAt,value
2022-11-23T00:01:34.018Z,96401.39
2022-11-23T00:04:11.967Z,96400.79
2022-11-23T00:06:39.971Z,96394.80
2022-11-23T00:09:08.272Z,96381.91
2022-11-23T00:11:36.274Z,96381.84
2022-11-23T00:14:04.324Z,96379.87
2022-11-23T00:16:32.365Z,96388.41
2022-11-23T00:19:01.296Z,96391.37
2022-11-23T00:21:31.861Z,96388.69
2022-11-23T00:23:59.562Z,96390.03
2022-11-23T00:26:27.794Z,96388.45
2022-11-23T00:28:55.354Z,96386.83
2022-11-23T00:31:25.257Z,96374.22
2022-11-23T00:33:55.217Z,96387.13
2022-11-23T00:36:25.200Z,96381.30
2022-11-23T00:38:55.112Z,96376.55
2022-11-23T00:41:25.836Z,96368.51
2022-11-23T00:43:53.718Z,96374.48
2022-11-23T00:46:25.492Z,96370.83
2022-11-23T00:48:56.175Z,96363.11
2022-11-23T00:51:28.094Z,96365.01
2022-11-23T00:53:55.768Z,96361.83
2022-11-23T00:56:25.130Z,96362.06
2022-11-23T00:58:54.632Z,96358.87
2022-11-23T01:01:26.547Z,96358.55
2022-11-23T01:03:57.796Z,96361.69
2022-11-23T01:06:31.807Z,96361.45
2022-11-23T01:09:07.899Z,96353.98
2022-11-23T01:11:35.903Z,96356.33
2022-11-23T01:14:04.309Z,96353.05
2022-11-23T01:16:37.251Z,96354.02
2022-11-23T01:19:08.749Z,96350.49
2022-11-23T01:21:36.892Z,96353.46
2022-11-23T01:24:17.662Z,96360.66
2022-11-23T01:26:48.729Z,96364.91
2022-11-23T01:29:17.760Z,96362.08
2022-11-23T01:31:46.941Z,96365.17
2022-11-23T01:34:15.862Z,96360.31
2022-11-23T01:36:45.257Z,96362.29
2022-11-23T01:39:14.716Z,96349.00
2022-11-23T01:41:44.970Z,96337.52
2022-11-23T01:44:29.694Z,96337.86
2022-11-23T01:47:01.072Z,96336.22
2022-11-23T01:49:36.535Z,96336.33
2022-11-23T01:52:13.048Z,96328.92
2022-11-23T01:54:51.392Z,96332.00
2022-11-23T01:57:26.151Z,96320.41
2022-11-23T01:59:55.331Z,96312.58
2022-11-23T02:02:22.869Z,96320.95
2022-11-23T02:04:51.709Z,96321.11
2022-11-23T02:07:20.541Z,96316.75
2022-11-23T02:09:48.988Z,96315.19
2022-11-23T02:12:16.766Z,96313.84
2022-11-23T02:14:45.553Z,96299.19
2022-11-23T02:17:13.635Z,96294.67
2022-11-23T02:20:09.853Z,96293.33
2022-11-23T02:23:23.905Z,96288.75
2022-11-23T02:26:15.605Z,96281.33
2022-11-23T02:28:54.422Z,96264.21
2022-11-23T02:31:23.176Z,96270.30
2022-11-23T02:33:52.634Z,96271.11
2022-11-23T02:36:50.028Z,96273.86
2022-11-23T02:39:22.633Z,96273.92
2022-11-23T02:41:53.005Z,96282.70
2022-11-23T02:44:31.817Z,96291.70
2022-11-23T02:46:59.851Z,96291.77
2022-11-23T02:49:27.977Z,96290.75
2022-11-23T02:51:55.633Z,96297.23
2022-11-23T02:54:25.204Z,96303.15
2022-11-23T02:56:52.838Z,96299.91
2022-11-23T02:59:20.732Z,96285.16
2022-11-23T03:01:50.311Z,96267.63
2022-11-23T03:04:19.823Z,96274.59
2022-11-23T03:06:47.002Z,96274.49
2022-11-23T03:09:14.551Z,96268.27
2022-11-23T03:11:42.568Z,96276.00
2022-11-23T03:14:10.960Z,96272.98
2022-11-23T03:16:40.251Z,96254.69
2022-11-23T03:19:08.357Z,96256.75
2022-11-23T03:21:36.814Z,96258.32
2022-11-23T03:24:06.783Z,96274.87
2022-11-23T03:26:35.226Z,96261.72
2022-11-23T03:29:05.139Z,96265.97
2022-11-23T03:31:32.916Z,96268.02
2022-11-23T03:34:01.315Z,96252.16
2022-11-23T03:36:30.482Z,96256.63
2022-11-23T03:38:58.668Z,96250.41
2022-11-23T03:41:30.809Z,96244.97
2022-11-23T03:44:00.133Z,96244.41
2022-11-23T03:46:27.958Z,96247.10
2022-11-23T03:48:55.658Z,96258.06
2022-11-23T03:51:22.985Z,96254.03
2022-11-23T03:53:50.632Z,96239.73
2022-11-23T03:56:19.734Z,96229.41
2022-11-23T03:58:47.269Z,96234.89
2022-11-23T04:01:15.092Z,96242.47
2022-11-23T04:03:44.452Z,96242.77
2022-11-23T04:06:14.013Z,96242.03
2022-11-23T04:08:50.417Z,96247.70
2022-11-23T04:11:19.986Z,96246.55
2022-11-23T04:13:49.023Z,96242.75
2022-11-23T04:16:16.841Z,96246.59
2022-11-23T04:18:44.416Z,96246.41
2022-11-23T04:21:12.297Z,96244.34
2022-11-23T04:23:40.159Z,96227.41
2022-11-23T04:26:09.118Z,96231.69
2022-11-23T04:28:38.512Z,96225.24
2022-11-23T04:31:06.618Z,96232.83
2022-11-23T04:33:36.167Z,96243.91
2022-11-23T04:36:05.435Z,96249.20
2022-11-23T04:38:33.114Z,96245.36
2022-11-23T04:41:00.973Z,96250.92
2022-11-23T04:43:28.666Z,96243.91
2022-11-23T04:45:57.333Z,96238.72
2022-11-23T04:48:26.790Z,96237.78
2022-11-23T04:50:55.899Z,96229.02
2022-11-23T04:53:28.113Z,96235.50
2022-11-23T04:55:56.358Z,96229.20
2022-11-23T04:58:24.192Z,96214.21
2022-11-23T05:00:54.214Z,96225.25
2022-11-23T05:03:21.900Z,96231.81
2022-11-23T05:05:49.882Z,96229.79
2022-11-23T05:08:17.606Z,96224.49
2022-11-23T05:10:47.486Z,96225.38
2022-11-23T05:13:15.333Z,96234.06
2022-11-23T05:15:43.580Z,96224.90
2022-11-23T05:18:13.464Z,96222.55
2022-11-23T05:20:41.524Z,96230.34
2022-11-23T05:23:11.001Z,96221.83
2022-11-23T05:25:40.651Z,96228.55
2022-11-23T05:28:39.093Z,96217.33
2022-11-23T05:30:49.027Z,96225.63
2022-11-23T05:33:16.943Z,96229.88
2022-11-23T05:35:44.743Z,96224.29
2022-11-23T05:38:12.519Z,96226.48
2022-11-23T05:40:40.250Z,96230.29
2022-11-23T05:43:09.090Z,96238.56
2022-11-23T05:45:36.598Z,96242.92
2022-11-23T05:48:04.803Z,96242.36
2022-11-23T05:50:34.555Z,96239.12
2022-11-23T05:53:19.333Z,96239.91
2022-11-23T05:55:49.004Z,96242.59
2022-11-23T05:58:18.793Z,96257.12
2022-11-23T06:00:46.395Z,96250.64
2022-11-23T06:03:15.231Z,96249.38
2022-11-23T06:05:43.177Z,96254.80
2022-11-23T06:08:10.731Z,96251.08
2022-11-23T06:10:39.710Z,96253.41
2022-11-23T06:13:07.370Z,96250.16
2022-11-23T06:15:35.865Z,96246.70
2022-11-23T06:18:04.056Z,96245.02
2022-11-23T06:20:36.319Z,96253.19
2022-11-23T06:23:04.144Z,96250.34
2022-11-23T06:25:31.724Z,96252.52
2022-11-23T06:28:01.401Z,96245.02
2022-11-23T06:30:31.190Z,96253.47
2022-11-23T06:33:04.198Z,96253.95
2022-11-23T06:35:33.779Z,96249.70
2022-11-23T06:38:01.497Z,96251.27
2022-11-23T06:40:29.509Z,96241.38
2022-11-23T06:43:00.388Z,96241.94
2022-11-23T06:45:39.170Z,96238.02
2022-11-23T06:48:08.503Z,96235.39
2022-11-23T06:50:37.913Z,96238.71
2022-11-23T06:53:05.604Z,96236.13
2022-11-23T06:55:35.193Z,96238.98
2022-11-23T06:58:04.028Z,96245.25
2022-11-23T07:00:32.980Z,96250.14
2022-11-23T07:03:01.765Z,96256.17
2022-11-23T07:05:31.436Z,96257.04
2022-11-23T07:07:59.185Z,96256.33
2022-11-23T07:10:27.307Z,96250.73
2022-11-23T07:13:06.551Z,96251.22
2022-11-23T07:15:36.560Z,96248.27
2022-11-23T07:18:05.648Z,96252.30
2022-11-23T07:20:34.122Z,96253.91
2022-11-23T07:23:06.576Z,96253.64
2022-11-23T07:25:37.804Z,96261.95
2022-11-23T07:28:07.552Z,96268.72
2022-11-23T07:30:36.163Z,96277.41
2022-11-23T07:33:08.029Z,96265.50
2022-11-23T07:35:41.360Z,96260.89
2022-11-23T07:38:09.125Z,96265.44
2022-11-23T07:40:38.559Z,96255.31
2022-11-23T07:43:07.653Z,96255.48
2022-11-23T07:45:36.837Z,96257.33
2022-11-23T07:48:08.908Z,96250.11
2022-11-23T07:50:39.712Z,96246.02
2022-11-23T07:53:08.085Z,96253.88
2022-11-23T07:55:35.368Z,96252.55
2022-11-23T07:58:02.967Z,96252.05
2022-11-23T08:00:31.112Z,96234.69
2022-11-23T08:03:26.303Z,96240.98
2022-11-23T08:05:28.734Z,96239.00
2022-11-23T08:08:01.359Z,96234.39
2022-11-23T08:10:31.191Z,96236.52
2022-11-23T08:13:00.449Z,96227.45
2022-11-23T08:15:28.242Z,96233.36
2022-11-23T08:17:59.097Z,96230.23
2022-11-23T08:20:29.491Z,96232.36
2022-11-23T08:22:57.514Z,96235.39
2022-11-23T08:25:27.327Z,96235.39
2022-11-23T08:27:58.461Z,96231.10
2022-11-23T08:30:27.660Z,96233.80
2022-11-23T08:32:55.843Z,96237.61
2022-11-23T08:35:24.286Z,96234.22
2022-11-23T08:37:52.203Z,96229.96
2022-11-23T08:40:25.116Z,96227.27
2022-11-23T08:42:49.673Z,96226.53
2022-11-23T08:45:19.125Z,96223.72
2022-11-23T08:47:46.527Z,96221.81
2022-11-23T08:50:14.570Z,96213.53
2022-11-23T08:52:42.505Z,96215.22
2022-11-23T08:55:10.309Z,96211.73
2022-11-23T08:57:38.422Z,96214.53
2022-11-23T09:00:08.272Z,96210.06
2022-11-23T09:02:35.993Z,96206.85
2022-11-23T09:05:06.141Z,96203.64
2022-11-23T09:07:34.007Z,96197.14
2022-11-23T09:10:01.817Z,96200.30
2022-11-23T09:12:29.543Z,96191.79
2022-11-23T09:14:57.097Z,96190.70
2022-11-23T09:17:24.487Z,96183.52
2022-11-23T09:19:52.071Z,96189.37
2022-11-23T09:22:19.781Z,96177.48
2022-11-23T09:24:47.573Z,96184.44
2022-11-23T09:27:15.222Z,96178.48
2022-11-23T09:29:43.180Z,96185.78
2022-11-23T09:32:11.072Z,96183.09
2022-11-23T09:34:38.529Z,96183.84
2022-11-23T09:37:06.071Z,96194.95
2022-11-23T09:39:34.030Z,96186.19
2022-11-23T09:42:09.500Z,96180.36
2022-11-23T09:45:10.374Z,96182.02
2022-11-23T09:48:00.408Z,96181.90
2022-11-23T09:50:36.166Z,96174.95
2022-11-23T09:53:09.279Z,96169.69
2022-11-23T09:55:47.230Z,96176.86
2022-11-23T09:58:24.857Z,96177.86
2022-11-23T10:01:07.124Z,96175.42
2022-11-23T10:03:43.934Z,96172.30
2022-11-23T10:06:28.023Z,96168.25
2022-11-23T10:09:18.702Z,96163.33
2022-11-23T10:12:18.870Z,96153.49
2022-11-23T10:15:13.614Z,96156.41
2022-11-23T10:18:10.468Z,96158.77
2022-11-23T10:21:03.222Z,96151.72
2022-11-23T10:23:56.860Z,96147.55
2022-11-23T10:26:36.045Z,96147.43
2022-11-23T10:29:14.111Z,96142.02
2022-11-23T10:31:46.633Z,96142.48
2022-11-23T10:34:19.693Z,96138.08
2022-11-23T10:36:47.507Z,96141.56
2022-11-23T10:39:25.898Z,96144.05
2022-11-23T10:42:01.668Z,96148.33
2022-11-23T10:44:37.930Z,96147.33
2022-11-23T10:47:05.862Z,96149.91
2022-11-23T10:49:35.503Z,96151.71
2022-11-23T10:52:08.232Z,96154.16
2022-11-23T10:54:46.770Z,96149.12
2022-11-23T10:57:30.708Z,96149.22
2022-11-23T11:00:12.761Z,96154.39
2022-11-23T11:02:43.771Z,96157.30
2022-11-23T11:06:09.382Z,96150.81
2022-11-23T11:08:18.587Z,96150.12
2022-11-23T11:10:59.206Z,96145.19
2022-11-23T11:13:34.902Z,96148.88
2022-11-23T11:16:06.736Z,96153.95
2022-11-23T11:18:37.814Z,96142.26
2022-11-23T11:21:22.820Z,96142.72
2022-11-23T11:24:04.307Z,96139.89
2022-11-23T11:26:35.419Z,96137.44
2022-11-23T11:29:06.299Z,96139.44
2022-11-23T11:31:54.550Z,96144.27
2022-11-23T11:34:30.462Z,96141.54
2022-11-23T11:37:12.028Z,96138.17
2022-11-23T11:39:55.840Z,96126.22
2022-11-23T11:42:56.813Z,96115.64
2022-11-23T11:45:35.295Z,96117.44
2022-11-23T11:48:38.961Z,96124.39
2022-11-23T11:51:23.460Z,96128.40
2022-11-23T11:53:59.301Z,96123.25
2022-11-23T11:56:52.784Z,96118.84
2022-11-23T11:59:43.003Z,96114.23
2022-11-23T12:02:39.048Z,96112.92
2022-11-23T12:05:17.919Z,96109.91
2022-11-23T12:08:13.659Z,96116.56
2022-11-23T12:10:58.733Z,96113.86
2022-11-23T12:13:31.723Z,96110.96
2022-11-23T12:16:45.900Z,96121.11
2022-11-23T12:19:26.352Z,96120.43
2022-11-23T12:22:23.181Z,96122.48
2022-11-23T12:25:13.784Z,96118.46
2022-11-23T12:28:19.110Z,96115.66
2022-11-23T12:31:16.016Z,96111.61
2022-11-23T12:34:04.266Z,96109.16
2022-11-23T12:36:46.512Z,96109.04
2022-11-23T12:39:54.910Z,96112.41
2022-11-23T12:42:54.453Z,96108.50
2022-11-23T12:45:42.442Z,96103.42
2022-11-23T12:48:41.290Z,96098.95
2022-11-23T12:51:23.053Z,96096.26
2022-11-23T12:54:34.530Z,96098.50
2022-11-23T12:57:29.735Z,96111.52
2022-11-23T13:00:08.594Z,96109.72
2022-11-23T13:03:00.046Z,96104.88
2022-11-23T13:05:54.606Z,96108.76
2022-11-23T13:08:39.489Z,96116.59
2022-11-23T13:11:34.058Z,96114.43
2022-11-23T13:14:24.111Z,96113.48
2022-11-23T13:17:16.127Z,96105.88
2022-11-23T13:19:58.352Z,96091.70
2022-11-23T13:22:27.366Z,96091.37
2022-11-23T13:25:09.922Z,96097.98
2022-11-23T13:27:51.721Z,96094.50
2022-11-23T13:31:07.184Z,96101.81
2022-11-23T13:33:27.157Z,96105.77
2022-11-23T13:36:01.046Z,96108.16
2022-11-23T13:38:36.945Z,96113.56
2022-11-23T13:41:36.014Z,96110.22
2022-11-23T13:44:27.728Z,96116.30
2022-11-23T13:47:15.894Z,96115.73
2022-11-23T13:49:49.565Z,96101.67
2022-11-23T13:52:23.250Z,96096.28
2022-11-23T13:55:11.501Z,96095.39
2022-11-23T13:57:42.242Z,96096.95
2022-11-23T14:00:50.063Z,96097.62
2022-11-23T14:03:52.537Z,96099.39
2022-11-23T14:06:50.758Z,96105.70
2022-11-23T14:09:49.647Z,96100.89
2022-11-23T14:12:23.368Z,96116.09
2022-11-23T14:15:17.680Z,96117.23
2022-11-23T14:18:22.808Z,96113.85
2022-11-23T14:21:11.389Z,96115.16
2022-11-23T14:24:02.734Z,96115.80
2022-11-23T14:26:50.763Z,96111.38
2022-11-23T14:30:08.588Z,96113.70
2022-11-23T14:33:03.519Z,96121.79
2022-11-23T14:35:42.043Z,96122.66
2022-11-23T14:38:32.007Z,96126.72
2022-11-23T14:41:10.348Z,96122.69
2022-11-23T14:43:41.796Z,96129.47
2022-11-23T14:46:18.496Z,96121.39
2022-11-23T14:48:48.445Z,96120.41
2022-11-23T14:51:23.164Z,96121.23
2022-11-23T14:53:55.021Z,96121.48
2022-11-23T14:56:47.101Z,96118.80
2022-11-23T14:59:29.086Z,96125.78
2022-11-23T15:02:00.886Z,96129.27
2022-11-23T15:04:34.101Z,96127.14
2022-11-23T15:07:07.461Z,96121.21
2022-11-23T15:10:18.901Z,96125.72
2022-11-23T15:12:48.982Z,96136.61
2022-11-23T15:15:23.620Z,96135.52
2022-11-23T15:17:55.897Z,96132.61
2022-11-23T15:20:28.928Z,96136.64
2022-11-23T15:22:56.511Z,96139.45
2022-11-23T15:25:24.248Z,96135.09
2022-11-23T15:27:52.421Z,96132.16
2022-11-23T15:30:28.326Z,96133.95
2022-11-23T15:33:04.125Z,96131.28
2022-11-23T15:35:35.173Z,96127.23
2022-11-23T15:38:10.179Z,96129.02
2022-11-23T15:40:42.385Z,96135.10
2022-11-23T15:43:18.689Z,96133.29
2022-11-23T15:45:51.620Z,96137.80
2022-11-23T15:48:32.899Z,96145.18
2022-11-23T15:51:08.105Z,96138.56
2022-11-23T15:53:51.343Z,96145.31
2022-11-23T15:56:30.575Z,96140.27
2022-11-23T15:59:03.105Z,96147.23
2022-11-23T16:01:31.495Z,96142.17
2022-11-23T16:04:06.330Z,96146.33
2022-11-23T16:06:40.603Z,96155.98
2022-11-23T16:09:55.482Z,96152.60
2022-11-23T16:12:31.163Z,96159.78
2022-11-23T16:15:31.872Z,96163.59
2022-11-23T16:18:01.281Z,96171.47
2022-11-23T16:20:30.131Z,96175.05
2022-11-23T16:23:01.342Z,96168.64
2022-11-23T16:25:33.032Z,96168.05
2022-11-23T16:28:14.260Z,96165.93
2022-11-23T16:30:46.893Z,96173.86
2022-11-23T16:33:17.590Z,96173.39
2022-11-23T16:35:45.698Z,96168.00
2022-11-23T16:38:13.453Z,96169.56
2022-11-23T16:40:43.388Z,96170.88
2022-11-23T16:43:12.356Z,96175.69
2022-11-23T16:45:46.836Z,96177.56
2022-11-23T16:48:38.581Z,96181.34
2022-11-23T16:51:07.546Z,96179.98
2022-11-23T16:54:00.360Z,96179.72
2022-11-23T16:56:08.134Z,96182.61
2022-11-23T16:58:36.031Z,96184.16
2022-11-23T17:01:04.280Z,96186.02
2022-11-23T17:03:33.483Z,96185.89
2022-11-23T17:06:01.231Z,96181.16
2022-11-23T17:08:28.783Z,96179.81
2022-11-23T17:10:56.475Z,96178.81
2022-11-23T17:13:28.456Z,96178.89
2022-11-23T17:15:56.355Z,96178.89
2022-11-23T17:18:24.010Z,96176.63
2022-11-23T17:20:51.540Z,96176.75
2022-11-23T17:23:19.157Z,96179.09
2022-11-23T17:25:46.890Z,96182.48
2022-11-23T17:28:22.234Z,96180.49
2022-11-23T17:30:50.275Z,96175.78
2022-11-23T17:33:17.903Z,96183.20
2022-11-23T17:35:45.736Z,96178.73
2022-11-23T17:38:16.995Z,96180.22
2022-11-23T17:40:45.263Z,96173.07
2022-11-23T17:43:14.854Z,96178.36
2022-11-23T17:45:44.363Z,96183.53
2022-11-23T17:48:14.878Z,96186.02
2022-11-23T17:50:42.540Z,96183.55
2022-11-23T17:53:10.940Z,96183.55
2022-11-23T17:55:38.531Z,96185.70
2022-11-23T17:58:06.737Z,96181.98
2022-11-23T18:00:35.087Z,96181.06
2022-11-23T18:03:02.843Z,96181.48
2022-11-23T18:05:31.101Z,96182.82
2022-11-23T18:07:58.838Z,96181.42
2022-11-23T18:10:26.639Z,96189.48
2022-11-23T18:12:54.306Z,96193.94
2022-11-23T18:15:21.594Z,96188.50
2022-11-23T18:17:49.174Z,96195.20
2022-11-23T18:20:17.257Z,96193.36
2022-11-23T18:22:45.177Z,96201.59
2022-11-23T18:25:12.612Z,96198.39
2022-11-23T18:27:40.237Z,96205.27
2022-11-23T18:30:09.055Z,96207.03
2022-11-23T18:32:37.124Z,96201.85
2022-11-23T18:35:06.526Z,96207.86
2022-11-23T18:37:33.982Z,96217.68
2022-11-23T18:40:02.155Z,96213.50
2022-11-23T18:42:30.064Z,96213.14
2022-11-23T18:44:57.648Z,96215.67
2022-11-23T18:47:25.306Z,96223.58
2022-11-23T18:49:52.956Z,96220.22
2022-11-23T18:52:20.721Z,96223.31
2022-11-23T18:54:48.574Z,96218.50
2022-11-23T18:57:16.529Z,96227.34
2022-11-23T18:59:59.718Z,96226.23
2022-11-23T19:02:13.967Z,96228.28
2022-11-23T19:04:41.801Z,96238.50
2022-11-23T19:07:09.305Z,96239.50
2022-11-23T19:09:37.088Z,96238.56
2022-11-23T19:12:06.358Z,96244.97
2022-11-23T19:14:33.909Z,96237.19
2022-11-23T19:17:02.223Z,96235.69
2022-11-23T19:19:29.714Z,96236.45
2022-11-23T19:21:57.665Z,96230.53
2022-11-23T19:24:25.662Z,96231.57
2022-11-23T19:26:53.313Z,96228.63
2022-11-23T19:29:24.794Z,96230.39
2022-11-23T19:31:52.410Z,96232.16
2022-11-23T19:34:21.941Z,96230.37
2022-11-23T19:36:49.495Z,96226.78
2022-11-23T19:39:17.050Z,96235.19
2022-11-23T19:41:44.820Z,96240.11
2022-11-23T19:44:12.388Z,96243.75
2022-11-23T19:46:40.562Z,96241.73
2022-11-23T19:49:08.546Z,96247.05
2022-11-23T19:51:35.943Z,96247.02
2022-11-23T19:54:05.531Z,96259.52
2022-11-23T19:56:33.027Z,96261.47
2022-11-23T19:59:01.535Z,96263.22
2022-11-23T20:01:32.328Z,96268.00
2022-11-23T20:04:08.222Z,96268.27
2022-11-23T20:06:35.654Z,96271.77
2022-11-23T20:09:06.925Z,96277.95
2022-11-23T20:11:35.378Z,96284.36
2022-11-23T20:14:03.543Z,96287.45
2022-11-23T20:16:32.740Z,96290.53
2022-11-23T20:19:04.538Z,96288.81
2022-11-23T20:21:33.926Z,96294.18
2022-11-23T20:24:13.388Z,96301.52
2022-11-23T20:26:42.243Z,96301.85
2022-11-23T20:29:10.360Z,96306.89
2022-11-23T20:31:38.055Z,96308.16
2022-11-23T20:34:08.112Z,96312.23
2022-11-23T20:36:37.663Z,96311.61
2022-11-23T20:39:09.570Z,96318.86
2022-11-23T20:41:37.769Z,96318.91
2022-11-23T20:44:13.054Z,96312.05
2022-11-23T20:49:10.847Z,96308.78
2022-11-23T20:51:38.455Z,96315.80
2022-11-23T20:54:06.479Z,96311.35
2022-11-23T20:56:34.817Z,96316.73
2022-11-23T20:59:03.761Z,96315.80
2022-11-23T21:01:32.013Z,96313.97
2022-11-23T21:03:59.831Z,96319.11
2022-11-23T21:06:28.060Z,96322.43
2022-11-23T21:08:56.140Z,96328.20
2022-11-23T21:11:45.311Z,96339.59
2022-11-23T21:14:19.653Z,96341.33
2022-11-23T21:16:57.637Z,96345.23
2022-11-23T21:19:30.188Z,96343.48
2022-11-23T21:22:01.248Z,96337.17
2022-11-23T21:24:29.196Z,96331.97
2022-11-23T21:26:57.112Z,96336.41
2022-11-23T21:29:25.640Z,96329.38
2022-11-23T21:31:53.686Z,96340.22
2022-11-23T21:34:25.303Z,96335.96
2022-11-23T21:36:54.649Z,96335.14
2022-11-23T21:39:23.562Z,96341.63
2022-11-23T21:41:53.649Z,96341.95
2022-11-23T21:44:22.207Z,96339.05
2022-11-23T21:46:50.300Z,96344.94
2022-11-23T21:49:20.093Z,96352.30
2022-11-23T21:51:48.321Z,96351.81
2022-11-23T21:54:16.385Z,96359.02
2022-11-23T21:56:45.964Z,96343.85
2022-11-23T21:59:14.406Z,96346.04
2022-11-23T22:01:42.573Z,96350.71
2022-11-23T22:04:12.980Z,96359.53
2022-11-23T22:06:41.655Z,96355.72
2022-11-23T22:09:11.035Z,96355.70
2022-11-23T22:11:42.426Z,96355.15
2022-11-23T22:14:18.515Z,96360.65
2022-11-23T22:16:53.241Z,96365.69
2022-11-23T22:19:20.737Z,96360.62
2022-11-23T22:21:48.554Z,96364.69
2022-11-23T22:24:19.079Z,96367.45
2022-11-23T22:26:48.353Z,96365.61
2022-11-23T22:29:16.303Z,96362.11
2022-11-23T22:31:44.168Z,96360.65
2022-11-23T22:34:13.594Z,96355.58
2022-11-23T22:36:41.499Z,96354.80
2022-11-23T22:39:09.525Z,96350.84
2022-11-23T22:41:38.363Z,96349.38
2022-11-23T22:44:09.081Z,96344.00
2022-11-23T22:46:37.686Z,96337.59
2022-11-23T22:49:05.806Z,96339.27
2022-11-23T22:51:33.737Z,96335.31
2022-11-23T22:54:02.266Z,96344.56
2022-11-23T22:56:30.834Z,96339.05
2022-11-23T22:58:59.129Z,96337.70
2022-11-23T23:01:30.010Z,96342.70
2022-11-23T23:04:00.867Z,96336.65
2022-11-23T23:06:33.882Z,96340.12
2022-11-23T23:09:03.671Z,96335.34
2022-11-23T23:11:32.561Z,96345.88
2022-11-23T23:14:00.761Z,96342.93
2022-11-23T23:16:29.461Z,96344.05
2022-11-23T23:18:58.677Z,96348.70
2022-11-23T23:21:27.742Z,96355.42
2022-11-23T23:23:58.304Z,96344.05
2022-11-23T23:26:28.070Z,96341.51
2022-11-23T23:28:58.416Z,96341.91
2022-11-23T23:31:27.861Z,96334.56
2022-11-23T23:33:56.456Z,96333.59
2022-11-23T23:36:24.504Z,96343.86
2022-11-23T23:38:52.168Z,96338.06
2022-11-23T23:41:20.268Z,96336.69
2022-11-23T23:43:48.302Z,96341.80
2022-11-23T23:46:16.663Z,96334.55
2022-11-23T23:48:44.879Z,96343.45
2022-11-23T23:51:18.952Z,96340.44
2022-11-23T23:53:47.042Z,96341.92
2022-11-23T23:56:19.388Z,96345.53
2022-11-23T23:58:47.024Z,96353.38
